Terminal Aerodrome Forecast
Issued by NWS Wilmington, OH

Current Version | Previous Version | Graphics & Text | Print | Product List | Glossary On
Versions: 1 2 3 4 5 6 7 8 9 10 11 12 13 14
000
FTUS41 KILN 271100
TAFILN
TAF
KILN 271138Z 2712/2812 VRB03KT P6SM BKN100
     FM271300 33006KT P6SM SCT040 BKN100
     FM271500 35007KT P6SM VCTS BKN060CB
     FM272000 01005KT P6SM BKN090
     FM280000 04005KT P6SM SCT100 BKN250
     FM280800 05004KT 5SM BR BKN250=

USA.gov is the U.S. government's official web portal to all federal, state and local government web resources and services.